sensor_id;sensor_type;location;lat;lon;timestamp;P1;durP1;ratioP1;P2;durP2;ratioP2
52764;SDS011;38650;44.536;18.664;2023-02-26T00:01:18;1.70;;;1.13;;
52764;SDS011;38650;44.536;18.664;2023-02-26T00:03:53;1.80;;;1.10;;
52764;SDS011;38650;44.536;18.664;2023-02-26T00:06:20;1.10;;;0.90;;
52764;SDS011;38650;44.536;18.664;2023-02-26T00:08:47;1.42;;;0.80;;
52764;SDS011;38650;44.536;18.664;2023-02-26T00:11:13;1.30;;;1.02;;
52764;SDS011;38650;44.536;18.664;2023-02-26T00:13:40;1.27;;;0.90;;
52764;SDS011;38650;44.536;18.664;2023-02-26T00:16:26;1.60;;;1.13;;
52764;SDS011;38650;44.536;18.664;2023-02-26T00:18:57;1.50;;;1.23;;
52764;SDS011;38650;44.536;18.664;2023-02-26T00:21:25;2.28;;;1.50;;
52764;SDS011;38650;44.536;18.664;2023-02-26T00:23:51;2.58;;;1.25;;
52764;SDS011;38650;44.536;18.664;2023-02-26T00:26:18;1.40;;;1.20;;
52764;SDS011;38650;44.536;18.664;2023-02-26T00:28:44;1.67;;;1.15;;
52764;SDS011;38650;44.536;18.664;2023-02-26T00:31:10;0.85;;;0.77;;
52764;SDS011;38650;44.536;18.664;2023-02-26T00:33:38;0.73;;;0.73;;
52764;SDS011;38650;44.536;18.664;2023-02-26T00:41:32;2.85;;;1.50;;
52764;SDS011;38650;44.536;18.664;2023-02-26T00:43:58;1.10;;;1.00;;
52764;SDS011;38650;44.536;18.664;2023-02-26T00:46:35;1.17;;;1.08;;
52764;SDS011;38650;44.536;18.664;2023-02-26T00:49:21;1.42;;;1.30;;
52764;SDS011;38650;44.536;18.664;2023-02-26T00:51:52;1.70;;;1.10;;
52764;SDS011;38650;44.536;18.664;2023-02-26T00:54:28;2.05;;;1.58;;
52764;SDS011;38650;44.536;18.664;2023-02-26T00:56:55;1.70;;;1.25;;
52764;SDS011;38650;44.536;18.664;2023-02-26T00:59:22;1.98;;;1.67;;
52764;SDS011;38650;44.536;18.664;2023-02-26T01:01:48;1.50;;;1.20;;
52764;SDS011;38650;44.536;18.664;2023-02-26T01:04:16;2.45;;;1.10;;
52764;SDS011;38650;44.536;18.664;2023-02-26T01:06:45;1.50;;;1.40;;
52764;SDS011;38650;44.536;18.664;2023-02-26T01:09:31;2.65;;;1.80;;
52764;SDS011;38650;44.536;18.664;2023-02-26T01:12:00;1.60;;;1.35;;
52764;SDS011;38650;44.536;18.664;2023-02-26T01:14:29;1.83;;;1.40;;
52764;SDS011;38650;44.536;18.664;2023-02-26T01:16:58;1.20;;;1.10;;
52764;SDS011;38650;44.536;18.664;2023-02-26T01:25:05;2.05;;;1.65;;
52764;SDS011;38650;44.536;18.664;2023-02-26T01:27:36;1.77;;;1.65;;
52764;SDS011;38650;44.536;18.664;2023-02-26T01:30:04;2.30;;;2.10;;
52764;SDS011;38650;44.536;18.664;2023-02-26T01:35:07;2.80;;;2.47;;
52764;SDS011;38650;44.536;18.664;2023-02-26T01:37:42;2.42;;;2.17;;
52764;SDS011;38650;44.536;18.664;2023-02-26T01:42:52;3.10;;;2.33;;
52764;SDS011;38650;44.536;18.664;2023-02-26T01:45:25;4.00;;;3.17;;
52764;SDS011;38650;44.536;18.664;2023-02-26T01:48:01;2.60;;;2.20;;
52764;SDS011;38650;44.536;18.664;2023-02-26T01:50:29;1.95;;;1.85;;
52764;SDS011;38650;44.536;18.664;2023-02-26T01:53:18;2.35;;;1.98;;
52764;SDS011;38650;44.536;18.664;2023-02-26T01:55:45;2.58;;;2.22;;
52764;SDS011;38650;44.536;18.664;2023-02-26T01:58:15;2.85;;;2.45;;
52764;SDS011;38650;44.536;18.664;2023-02-26T02:00:41;2.63;;;2.42;;
52764;SDS011;38650;44.536;18.664;2023-02-26T02:03:07;3.45;;;2.88;;
52764;SDS011;38650;44.536;18.664;2023-02-26T02:05:37;2.20;;;2.00;;
52764;SDS011;38650;44.536;18.664;2023-02-26T02:08:07;2.40;;;2.20;;
52764;SDS011;38650;44.536;18.664;2023-02-26T02:10:32;2.67;;;2.47;;
52764;SDS011;38650;44.536;18.664;2023-02-26T02:13:09;2.40;;;2.15;;
52764;SDS011;38650;44.536;18.664;2023-02-26T02:18:21;3.15;;;2.63;;
52764;SDS011;38650;44.536;18.664;2023-02-26T02:24:02;2.15;;;1.95;;
52764;SDS011;38650;44.536;18.664;2023-02-26T02:26:43;1.50;;;1.40;;
52764;SDS011;38650;44.536;18.664;2023-02-26T02:34:39;1.90;;;1.42;;
52764;SDS011;38650;44.536;18.664;2023-02-26T02:40:03;1.60;;;1.50;;
52764;SDS011;38650;44.536;18.664;2023-02-26T02:45:13;1.08;;;0.98;;
52764;SDS011;38650;44.536;18.664;2023-02-26T02:47:54;0.82;;;0.82;;
52764;SDS011;38650;44.536;18.664;2023-02-26T02:50:33;1.30;;;1.20;;
52764;SDS011;38650;44.536;18.664;2023-02-26T02:53:10;1.00;;;0.90;;
52764;SDS011;38650;44.536;18.664;2023-02-26T02:55:47;1.30;;;0.90;;
52764;SDS011;38650;44.536;18.664;2023-02-26T02:58:20;1.30;;;1.20;;
52764;SDS011;38650;44.536;18.664;2023-02-26T03:00:51;0.88;;;0.77;;
52764;SDS011;38650;44.536;18.664;2023-02-26T03:03:25;1.02;;;0.85;;
52764;SDS011;38650;44.536;18.664;2023-02-26T03:06:05;0.68;;;0.50;;
52764;SDS011;38650;44.536;18.664;2023-02-26T03:08:33;0.60;;;0.57;;
52764;SDS011;38650;44.536;18.664;2023-02-26T03:11:02;1.02;;;0.60;;
52764;SDS011;38650;44.536;18.664;2023-02-26T03:13:28;0.60;;;0.50;;
52764;SDS011;38650;44.536;18.664;2023-02-26T03:15:59;0.73;;;0.60;;
52764;SDS011;38650;44.536;18.664;2023-02-26T03:24:11;1.60;;;0.80;;
52764;SDS011;38650;44.536;18.664;2023-02-26T03:26:43;1.88;;;0.82;;
52764;SDS011;38650;44.536;18.664;2023-02-26T03:32:26;1.63;;;0.90;;
52764;SDS011;38650;44.536;18.664;2023-02-26T03:37:48;0.82;;;0.75;;
52764;SDS011;38650;44.536;18.664;2023-02-26T03:40:19;1.27;;;1.17;;
52764;SDS011;38650;44.536;18.664;2023-02-26T03:42:54;0.95;;;0.70;;
52764;SDS011;38650;44.536;18.664;2023-02-26T03:45:30;1.55;;;0.82;;
52764;SDS011;38650;44.536;18.664;2023-02-26T03:47:59;1.00;;;0.70;;
52764;SDS011;38650;44.536;18.664;2023-02-26T03:50:31;0.65;;;0.60;;
52764;SDS011;38650;44.536;18.664;2023-02-26T03:53:05;0.63;;;0.63;;
52764;SDS011;38650;44.536;18.664;2023-02-26T03:55:38;0.55;;;0.30;;
52764;SDS011;38650;44.536;18.664;2023-02-26T03:58:10;0.60;;;0.60;;
52764;SDS011;38650;44.536;18.664;2023-02-26T04:00:37;0.45;;;0.40;;
52764;SDS011;38650;44.536;18.664;2023-02-26T04:05:46;0.30;;;0.30;;
52764;SDS011;38650;44.536;18.664;2023-02-26T04:08:14;0.75;;;0.50;;
52764;SDS011;38650;44.536;18.664;2023-02-26T04:11:14;0.43;;;0.30;;
52764;SDS011;38650;44.536;18.664;2023-02-26T04:13:36;0.45;;;0.38;;
52764;SDS011;38650;44.536;18.664;2023-02-26T04:16:02;0.32;;;0.25;;
52764;SDS011;38650;44.536;18.664;2023-02-26T04:18:28;0.38;;;0.20;;
52764;SDS011;38650;44.536;18.664;2023-02-26T04:20:54;0.38;;;0.30;;
52764;SDS011;38650;44.536;18.664;2023-02-26T04:23:20;0.40;;;0.20;;
52764;SDS011;38650;44.536;18.664;2023-02-26T04:25:45;0.30;;;0.20;;
52764;SDS011;38650;44.536;18.664;2023-02-26T04:28:11;0.38;;;0.30;;
52764;SDS011;38650;44.536;18.664;2023-02-26T04:30:37;0.20;;;0.20;;
52764;SDS011;38650;44.536;18.664;2023-02-26T04:33:03;0.40;;;0.22;;
52764;SDS011;38650;44.536;18.664;2023-02-26T04:35:29;0.32;;;0.30;;
52764;SDS011;38650;44.536;18.664;2023-02-26T04:37:54;0.20;;;0.20;;
52764;SDS011;38650;44.536;18.664;2023-02-26T04:40:20;0.17;;;0.13;;
52764;SDS011;38650;44.536;18.664;2023-02-26T04:42:48;0.30;;;0.20;;
52764;SDS011;38650;44.536;18.664;2023-02-26T04:45:13;0.30;;;0.13;;
52764;SDS011;38650;44.536;18.664;2023-02-26T04:47:39;0.20;;;0.20;;
52764;SDS011;38650;44.536;18.664;2023-02-26T04:50:05;0.20;;;0.10;;
52764;SDS011;38650;44.536;18.664;2023-02-26T04:52:31;0.28;;;0.20;;
52764;SDS011;38650;44.536;18.664;2023-02-26T04:54:57;0.50;;;0.40;;
52764;SDS011;38650;44.536;18.664;2023-02-26T04:57:23;0.55;;;0.30;;
52764;SDS011;38650;44.536;18.664;2023-02-26T04:59:48;0.20;;;0.20;;
52764;SDS011;38650;44.536;18.664;2023-02-26T05:02:14;0.40;;;0.22;;
52764;SDS011;38650;44.536;18.664;2023-02-26T05:04:40;0.30;;;0.20;;
52764;SDS011;38650;44.536;18.664;2023-02-26T05:07:05;0.57;;;0.32;;
52764;SDS011;38650;44.536;18.664;2023-02-26T05:09:31;1.08;;;0.80;;
52764;SDS011;38650;44.536;18.664;2023-02-26T05:11:57;2.03;;;1.75;;
52764;SDS011;38650;44.536;18.664;2023-02-26T05:14:23;8.02;;;6.40;;
52764;SDS011;38650;44.536;18.664;2023-02-26T05:16:48;3.70;;;3.28;;
52764;SDS011;38650;44.536;18.664;2023-02-26T05:19:14;1.70;;;1.60;;
52764;SDS011;38650;44.536;18.664;2023-02-26T05:21:40;1.23;;;1.00;;
52764;SDS011;38650;44.536;18.664;2023-02-26T05:24:06;1.17;;;0.85;;
52764;SDS011;38650;44.536;18.664;2023-02-26T05:26:32;1.50;;;1.40;;
52764;SDS011;38650;44.536;18.664;2023-02-26T05:28:57;1.55;;;1.10;;
52764;SDS011;38650;44.536;18.664;2023-02-26T05:31:23;1.23;;;1.08;;
52764;SDS011;38650;44.536;18.664;2023-02-26T05:33:50;1.25;;;0.90;;
52764;SDS011;38650;44.536;18.664;2023-02-26T05:36:16;0.95;;;0.70;;
52764;SDS011;38650;44.536;18.664;2023-02-26T05:38:42;0.88;;;0.73;;
52764;SDS011;38650;44.536;18.664;2023-02-26T05:41:08;1.23;;;0.80;;
52764;SDS011;38650;44.536;18.664;2023-02-26T05:43:33;0.60;;;0.40;;
52764;SDS011;38650;44.536;18.664;2023-02-26T05:45:59;0.45;;;0.35;;
52764;SDS011;38650;44.536;18.664;2023-02-26T05:48:25;0.65;;;0.47;;
52764;SDS011;38650;44.536;18.664;2023-02-26T05:50:51;0.50;;;0.40;;
52764;SDS011;38650;44.536;18.664;2023-02-26T05:53:17;0.40;;;0.40;;
52764;SDS011;38650;44.536;18.664;2023-02-26T05:55:43;0.98;;;0.70;;
52764;SDS011;38650;44.536;18.664;2023-02-26T05:58:09;1.80;;;1.42;;
52764;SDS011;38650;44.536;18.664;2023-02-26T06:00:34;2.55;;;1.80;;
52764;SDS011;38650;44.536;18.664;2023-02-26T06:03:00;4.30;;;3.85;;
52764;SDS011;38650;44.536;18.664;2023-02-26T06:05:26;8.32;;;7.25;;
52764;SDS011;38650;44.536;18.664;2023-02-26T06:07:52;8.60;;;7.30;;
52764;SDS011;38650;44.536;18.664;2023-02-26T06:10:17;6.65;;;5.75;;
52764;SDS011;38650;44.536;18.664;2023-02-26T06:12:43;5.65;;;5.05;;
52764;SDS011;38650;44.536;18.664;2023-02-26T06:15:09;5.15;;;4.53;;
52764;SDS011;38650;44.536;18.664;2023-02-26T06:17:35;6.60;;;5.43;;
52764;SDS011;38650;44.536;18.664;2023-02-26T06:20:01;6.28;;;5.55;;
52764;SDS011;38650;44.536;18.664;2023-02-26T06:22:28;8.90;;;6.85;;
52764;SDS011;38650;44.536;18.664;2023-02-26T06:24:54;23.25;;;16.75;;
52764;SDS011;38650;44.536;18.664;2023-02-26T06:27:20;24.42;;;16.00;;
52764;SDS011;38650;44.536;18.664;2023-02-26T06:29:46;18.52;;;14.23;;
52764;SDS011;38650;44.536;18.664;2023-02-26T06:32:12;16.67;;;13.63;;
52764;SDS011;38650;44.536;18.664;2023-02-26T06:34:38;14.32;;;11.18;;
52764;SDS011;38650;44.536;18.664;2023-02-26T06:37:03;12.65;;;9.68;;
52764;SDS011;38650;44.536;18.664;2023-02-26T06:39:29;10.88;;;8.70;;
52764;SDS011;38650;44.536;18.664;2023-02-26T06:41:55;9.85;;;7.85;;
52764;SDS011;38650;44.536;18.664;2023-02-26T06:44:21;11.60;;;9.98;;
52764;SDS011;38650;44.536;18.664;2023-02-26T06:46:47;10.38;;;8.50;;
52764;SDS011;38650;44.536;18.664;2023-02-26T06:49:12;9.52;;;8.43;;
52764;SDS011;38650;44.536;18.664;2023-02-26T06:51:38;8.27;;;7.07;;
52764;SDS011;38650;44.536;18.664;2023-02-26T06:54:04;8.63;;;7.55;;
52764;SDS011;38650;44.536;18.664;2023-02-26T06:56:30;10.13;;;9.00;;
52764;SDS011;38650;44.536;18.664;2023-02-26T06:58:55;10.57;;;8.93;;
52764;SDS011;38650;44.536;18.664;2023-02-26T07:01:21;10.20;;;7.85;;
52764;SDS011;38650;44.536;18.664;2023-02-26T07:03:48;14.60;;;12.10;;
52764;SDS011;38650;44.536;18.664;2023-02-26T07:06:14;12.13;;;10.30;;
52764;SDS011;38650;44.536;18.664;2023-02-26T07:08:40;15.27;;;13.25;;
52764;SDS011;38650;44.536;18.664;2023-02-26T07:11:06;16.08;;;14.38;;
52764;SDS011;38650;44.536;18.664;2023-02-26T07:13:34;15.15;;;13.40;;
52764;SDS011;38650;44.536;18.664;2023-02-26T07:16:01;23.83;;;18.48;;
52764;SDS011;38650;44.536;18.664;2023-02-26T07:18:28;14.52;;;12.82;;
52764;SDS011;38650;44.536;18.664;2023-02-26T07:20:54;12.20;;;10.25;;
52764;SDS011;38650;44.536;18.664;2023-02-26T07:23:19;13.70;;;12.05;;
52764;SDS011;38650;44.536;18.664;2023-02-26T07:25:47;17.10;;;14.27;;
52764;SDS011;38650;44.536;18.664;2023-02-26T07:28:14;15.10;;;12.35;;
52764;SDS011;38650;44.536;18.664;2023-02-26T07:30:39;16.70;;;14.73;;
52764;SDS011;38650;44.536;18.664;2023-02-26T07:33:06;26.55;;;20.08;;
52764;SDS011;38650;44.536;18.664;2023-02-26T07:35:33;24.30;;;18.48;;
52764;SDS011;38650;44.536;18.664;2023-02-26T07:37:58;21.90;;;18.15;;
52764;SDS011;38650;44.536;18.664;2023-02-26T07:40:24;19.05;;;16.02;;
52764;SDS011;38650;44.536;18.664;2023-02-26T07:42:50;24.95;;;19.45;;
52764;SDS011;38650;44.536;18.664;2023-02-26T07:45:15;20.63;;;17.48;;
52764;SDS011;38650;44.536;18.664;2023-02-26T07:47:46;18.98;;;16.48;;
52764;SDS011;38650;44.536;18.664;2023-02-26T07:50:13;18.92;;;16.02;;
52764;SDS011;38650;44.536;18.664;2023-02-26T07:52:39;25.17;;;21.95;;
52764;SDS011;38650;44.536;18.664;2023-02-26T07:55:06;36.95;;;28.23;;
52764;SDS011;38650;44.536;18.664;2023-02-26T07:57:32;25.70;;;21.13;;
52764;SDS011;38650;44.536;18.664;2023-02-26T07:59:58;22.33;;;17.83;;
52764;SDS011;38650;44.536;18.664;2023-02-26T08:02:23;18.90;;;16.48;;
52764;SDS011;38650;44.536;18.664;2023-02-26T08:04:49;17.58;;;15.65;;
52764;SDS011;38650;44.536;18.664;2023-02-26T08:07:15;16.05;;;14.30;;
52764;SDS011;38650;44.536;18.664;2023-02-26T08:09:41;18.00;;;13.90;;
52764;SDS011;38650;44.536;18.664;2023-02-26T08:12:07;14.30;;;12.15;;
52764;SDS011;38650;44.536;18.664;2023-02-26T08:14:33;13.10;;;11.48;;
52764;SDS011;38650;44.536;18.664;2023-02-26T08:16:58;14.90;;;13.23;;
52764;SDS011;38650;44.536;18.664;2023-02-26T08:19:24;10.57;;;9.23;;
52764;SDS011;38650;44.536;18.664;2023-02-26T08:21:50;10.20;;;8.85;;
52764;SDS011;38650;44.536;18.664;2023-02-26T08:24:15;8.05;;;6.82;;
52764;SDS011;38650;44.536;18.664;2023-02-26T08:26:41;6.97;;;5.88;;
52764;SDS011;38650;44.536;18.664;2023-02-26T08:29:07;5.80;;;5.20;;
52764;SDS011;38650;44.536;18.664;2023-02-26T08:31:33;5.60;;;5.00;;
52764;SDS011;38650;44.536;18.664;2023-02-26T08:33:59;6.43;;;5.28;;
52764;SDS011;38650;44.536;18.664;2023-02-26T08:36:25;6.15;;;5.20;;
52764;SDS011;38650;44.536;18.664;2023-02-26T08:38:51;4.55;;;4.13;;
52764;SDS011;38650;44.536;18.664;2023-02-26T08:41:17;4.25;;;3.85;;
52764;SDS011;38650;44.536;18.664;2023-02-26T08:43:42;5.03;;;4.53;;
52764;SDS011;38650;44.536;18.664;2023-02-26T08:46:08;8.68;;;7.20;;
52764;SDS011;38650;44.536;18.664;2023-02-26T08:48:34;9.07;;;6.63;;
52764;SDS011;38650;44.536;18.664;2023-02-26T08:51:00;34.88;;;26.65;;
52764;SDS011;38650;44.536;18.664;2023-02-26T08:53:25;14.35;;;12.10;;
52764;SDS011;38650;44.536;18.664;2023-02-26T08:55:52;23.88;;;17.45;;
52764;SDS011;38650;44.536;18.664;2023-02-26T08:58:18;20.95;;;16.00;;
52764;SDS011;38650;44.536;18.664;2023-02-26T09:00:44;16.15;;;12.93;;
52764;SDS011;38650;44.536;18.664;2023-02-26T09:03:10;20.05;;;15.68;;
52764;SDS011;38650;44.536;18.664;2023-02-26T09:05:36;14.43;;;11.93;;
52764;SDS011;38650;44.536;18.664;2023-02-26T09:08:03;15.35;;;13.57;;
52764;SDS011;38650;44.536;18.664;2023-02-26T09:10:29;17.35;;;13.82;;
52764;SDS011;38650;44.536;18.664;2023-02-26T09:12:55;14.80;;;12.85;;
52764;SDS011;38650;44.536;18.664;2023-02-26T09:15:20;14.68;;;12.80;;
52764;SDS011;38650;44.536;18.664;2023-02-26T09:17:46;12.32;;;10.82;;
52764;SDS011;38650;44.536;18.664;2023-02-26T09:20:12;12.57;;;10.65;;
52764;SDS011;38650;44.536;18.664;2023-02-26T09:22:39;17.20;;;13.43;;
52764;SDS011;38650;44.536;18.664;2023-02-26T09:25:05;16.33;;;12.90;;
52764;SDS011;38650;44.536;18.664;2023-02-26T09:27:31;13.95;;;12.40;;
52764;SDS011;38650;44.536;18.664;2023-02-26T09:29:58;13.40;;;10.85;;
52764;SDS011;38650;44.536;18.664;2023-02-26T09:32:23;15.38;;;11.32;;
52764;SDS011;38650;44.536;18.664;2023-02-26T09:34:50;13.23;;;11.10;;
52764;SDS011;38650;44.536;18.664;2023-02-26T09:37:16;11.57;;;9.65;;
52764;SDS011;38650;44.536;18.664;2023-02-26T09:39:43;9.23;;;8.30;;
52764;SDS011;38650;44.536;18.664;2023-02-26T09:42:11;10.13;;;8.55;;
52764;SDS011;38650;44.536;18.664;2023-02-26T09:44:44;9.02;;;7.82;;
52764;SDS011;38650;44.536;18.664;2023-02-26T09:47:15;7.55;;;6.85;;
52764;SDS011;38650;44.536;18.664;2023-02-26T09:49:52;8.80;;;7.38;;
52764;SDS011;38650;44.536;18.664;2023-02-26T09:52:26;8.88;;;8.07;;
52764;SDS011;38650;44.536;18.664;2023-02-26T09:54:57;10.43;;;9.32;;
52764;SDS011;38650;44.536;18.664;2023-02-26T09:57:29;16.60;;;14.23;;
52764;SDS011;38650;44.536;18.664;2023-02-26T09:59:57;20.75;;;16.60;;
52764;SDS011;38650;44.536;18.664;2023-02-26T10:02:44;18.90;;;16.77;;
52764;SDS011;38650;44.536;18.664;2023-02-26T10:05:41;23.63;;;19.73;;
52764;SDS011;38650;44.536;18.664;2023-02-26T10:08:14;23.88;;;20.20;;
52764;SDS011;38650;44.536;18.664;2023-02-26T10:10:47;21.65;;;18.20;;
52764;SDS011;38650;44.536;18.664;2023-02-26T10:16:19;16.65;;;13.68;;
52764;SDS011;38650;44.536;18.664;2023-02-26T10:18:53;13.52;;;12.13;;
52764;SDS011;38650;44.536;18.664;2023-02-26T10:24:17;14.63;;;12.13;;
52764;SDS011;38650;44.536;18.664;2023-02-26T10:26:52;12.07;;;9.98;;
52764;SDS011;38650;44.536;18.664;2023-02-26T10:29:27;11.00;;;9.80;;
52764;SDS011;38650;44.536;18.664;2023-02-26T10:34:39;10.27;;;9.18;;
52764;SDS011;38650;44.536;18.664;2023-02-26T10:37:17;17.08;;;12.95;;
52764;SDS011;38650;44.536;18.664;2023-02-26T10:39:49;13.02;;;10.52;;
52764;SDS011;38650;44.536;18.664;2023-02-26T10:42:32;12.50;;;9.70;;
52764;SDS011;38650;44.536;18.664;2023-02-26T10:50:41;10.55;;;9.40;;
52764;SDS011;38650;44.536;18.664;2023-02-26T10:53:12;11.75;;;10.52;;
52764;SDS011;38650;44.536;18.664;2023-02-26T10:55:46;9.77;;;8.77;;
52764;SDS011;38650;44.536;18.664;2023-02-26T10:58:26;9.30;;;8.20;;
52764;SDS011;38650;44.536;18.664;2023-02-26T11:00:52;8.13;;;7.32;;
52764;SDS011;38650;44.536;18.664;2023-02-26T11:05:47;10.55;;;8.55;;
52764;SDS011;38650;44.536;18.664;2023-02-26T11:08:17;11.10;;;9.32;;
52764;SDS011;38650;44.536;18.664;2023-02-26T11:13:21;10.73;;;9.23;;
52764;SDS011;38650;44.536;18.664;2023-02-26T11:15:49;9.23;;;8.25;;
52764;SDS011;38650;44.536;18.664;2023-02-26T11:18:22;11.48;;;9.38;;
52764;SDS011;38650;44.536;18.664;2023-02-26T11:23:19;9.93;;;8.65;;
52764;SDS011;38650;44.536;18.664;2023-02-26T11:25:51;9.85;;;8.85;;
52764;SDS011;38650;44.536;18.664;2023-02-26T11:28:42;10.40;;;8.82;;
52764;SDS011;38650;44.536;18.664;2023-02-26T11:31:11;13.02;;;11.57;;
52764;SDS011;38650;44.536;18.664;2023-02-26T11:33:43;21.05;;;18.48;;
52764;SDS011;38650;44.536;18.664;2023-02-26T11:36:14;19.15;;;16.40;;
52764;SDS011;38650;44.536;18.664;2023-02-26T11:38:45;20.35;;;17.17;;
52764;SDS011;38650;44.536;18.664;2023-02-26T11:41:16;17.63;;;14.70;;
52764;SDS011;38650;44.536;18.664;2023-02-26T11:43:43;16.95;;;15.15;;
52764;SDS011;38650;44.536;18.664;2023-02-26T11:46:12;25.48;;;21.73;;
52764;SDS011;38650;44.536;18.664;2023-02-26T11:48:40;18.58;;;16.30;;
52764;SDS011;38650;44.536;18.664;2023-02-26T11:51:28;21.30;;;16.83;;
52764;SDS011;38650;44.536;18.664;2023-02-26T11:56:31;27.58;;;20.77;;
52764;SDS011;38650;44.536;18.664;2023-02-26T11:59:17;40.95;;;30.58;;
52764;SDS011;38650;44.536;18.664;2023-02-26T12:01:45;33.25;;;25.25;;
52764;SDS011;38650;44.536;18.664;2023-02-26T12:04:13;30.75;;;24.05;;
52764;SDS011;38650;44.536;18.664;2023-02-26T12:06:45;26.35;;;19.98;;
52764;SDS011;38650;44.536;18.664;2023-02-26T12:09:13;23.25;;;18.13;;
52764;SDS011;38650;44.536;18.664;2023-02-26T12:19:37;22.42;;;17.33;;
52764;SDS011;38650;44.536;18.664;2023-02-26T12:36:12;15.88;;;12.27;;
52764;SDS011;38650;44.536;18.664;2023-02-26T12:38:48;13.27;;;10.35;;
52764;SDS011;38650;44.536;18.664;2023-02-26T12:41:32;11.95;;;9.98;;
52764;SDS011;38650;44.536;18.664;2023-02-26T12:44:26;10.13;;;8.57;;
52764;SDS011;38650;44.536;18.664;2023-02-26T12:50:11;7.15;;;5.47;;
52764;SDS011;38650;44.536;18.664;2023-02-26T13:17:26;2.25;;;2.05;;
52764;SDS011;38650;44.536;18.664;2023-02-26T13:20:09;2.38;;;1.85;;
52764;SDS011;38650;44.536;18.664;2023-02-26T13:22:44;2.03;;;1.60;;
52764;SDS011;38650;44.536;18.664;2023-02-26T13:25:21;2.00;;;1.80;;
52764;SDS011;38650;44.536;18.664;2023-02-26T13:27:48;3.08;;;2.40;;
52764;SDS011;38650;44.536;18.664;2023-02-26T13:30:33;2.80;;;2.53;;
52764;SDS011;38650;44.536;18.664;2023-02-26T13:33:03;3.60;;;2.35;;
52764;SDS011;38650;44.536;18.664;2023-02-26T13:35:33;2.17;;;1.90;;
52764;SDS011;38650;44.536;18.664;2023-02-26T13:38:04;2.20;;;2.00;;
52764;SDS011;38650;44.536;18.664;2023-02-26T13:49:29;2.60;;;2.22;;
52764;SDS011;38650;44.536;18.664;2023-02-26T13:51:52;2.67;;;1.90;;
52764;SDS011;38650;44.536;18.664;2023-02-26T14:01:49;1.70;;;1.35;;
52764;SDS011;38650;44.536;18.664;2023-02-26T14:22:21;1.33;;;1.00;;
52764;SDS011;38650;44.536;18.664;2023-02-26T14:35:17;2.10;;;1.30;;
52764;SDS011;38650;44.536;18.664;2023-02-26T14:37:58;1.10;;;1.00;;
52764;SDS011;38650;44.536;18.664;2023-02-26T14:40:27;1.42;;;1.23;;
52764;SDS011;38650;44.536;18.664;2023-02-26T14:42:58;1.30;;;1.00;;
52764;SDS011;38650;44.536;18.664;2023-02-26T14:47:57;1.23;;;0.98;;
52764;SDS011;38650;44.536;18.664;2023-02-26T14:50:24;1.73;;;1.10;;
52764;SDS011;38650;44.536;18.664;2023-02-26T14:58:41;1.38;;;0.90;;
52764;SDS011;38650;44.536;18.664;2023-02-26T15:01:15;1.17;;;1.00;;
52764;SDS011;38650;44.536;18.664;2023-02-26T15:09:27;1.30;;;1.02;;
52764;SDS011;38650;44.536;18.664;2023-02-26T15:17:36;1.92;;;1.15;;
52764;SDS011;38650;44.536;18.664;2023-02-26T15:20:09;1.67;;;1.27;;
52764;SDS011;38650;44.536;18.664;2023-02-26T15:25:44;2.95;;;1.40;;
52764;SDS011;38650;44.536;18.664;2023-02-26T15:28:14;1.20;;;1.02;;
52764;SDS011;38650;44.536;18.664;2023-02-26T15:30:47;1.40;;;1.15;;
52764;SDS011;38650;44.536;18.664;2023-02-26T15:33:13;1.35;;;1.17;;
52764;SDS011;38650;44.536;18.664;2023-02-26T15:35:42;1.25;;;1.00;;
52764;SDS011;38650;44.536;18.664;2023-02-26T15:38:09;1.52;;;1.42;;
52764;SDS011;38650;44.536;18.664;2023-02-26T15:40:35;1.38;;;1.20;;
52764;SDS011;38650;44.536;18.664;2023-02-26T15:43:04;1.30;;;1.20;;
52764;SDS011;38650;44.536;18.664;2023-02-26T15:47:59;2.03;;;1.50;;
52764;SDS011;38650;44.536;18.664;2023-02-26T15:50:29;1.50;;;1.40;;
52764;SDS011;38650;44.536;18.664;2023-02-26T15:52:58;2.45;;;1.60;;
52764;SDS011;38650;44.536;18.664;2023-02-26T15:55:28;3.75;;;2.47;;
52764;SDS011;38650;44.536;18.664;2023-02-26T15:57:57;4.03;;;3.28;;
52764;SDS011;38650;44.536;18.664;2023-02-26T16:00:23;4.22;;;2.60;;
52764;SDS011;38650;44.536;18.664;2023-02-26T16:02:49;5.05;;;3.80;;
52764;SDS011;38650;44.536;18.664;2023-02-26T16:05:21;4.65;;;3.20;;
52764;SDS011;38650;44.536;18.664;2023-02-26T16:07:48;8.77;;;6.68;;
52764;SDS011;38650;44.536;18.664;2023-02-26T16:10:15;13.82;;;9.25;;
52764;SDS011;38650;44.536;18.664;2023-02-26T16:12:51;20.67;;;14.55;;
52764;SDS011;38650;44.536;18.664;2023-02-26T16:15:22;12.70;;;9.45;;
52764;SDS011;38650;44.536;18.664;2023-02-26T16:17:55;22.13;;;15.25;;
52764;SDS011;38650;44.536;18.664;2023-02-26T16:20:24;13.38;;;10.55;;
52764;SDS011;38650;44.536;18.664;2023-02-26T16:22:59;15.48;;;11.65;;
52764;SDS011;38650;44.536;18.664;2023-02-26T16:25:49;12.18;;;9.68;;
52764;SDS011;38650;44.536;18.664;2023-02-26T16:28:23;14.35;;;10.10;;
52764;SDS011;38650;44.536;18.664;2023-02-26T16:30:54;10.15;;;7.32;;
52764;SDS011;38650;44.536;18.664;2023-02-26T16:33:23;12.35;;;8.77;;
52764;SDS011;38650;44.536;18.664;2023-02-26T16:35:54;9.95;;;6.95;;
52764;SDS011;38650;44.536;18.664;2023-02-26T16:38:43;8.80;;;6.75;;
52764;SDS011;38650;44.536;18.664;2023-02-26T16:41:10;9.20;;;7.38;;
52764;SDS011;38650;44.536;18.664;2023-02-26T16:46:13;12.13;;;9.50;;
52764;SDS011;38650;44.536;18.664;2023-02-26T16:48:54;12.35;;;9.35;;
52764;SDS011;38650;44.536;18.664;2023-02-26T16:51:24;16.73;;;11.98;;
52764;SDS011;38650;44.536;18.664;2023-02-26T16:56:31;13.93;;;12.02;;
52764;SDS011;38650;44.536;18.664;2023-02-26T16:59:04;15.13;;;12.63;;
52764;SDS011;38650;44.536;18.664;2023-02-26T17:01:42;16.23;;;14.40;;
52764;SDS011;38650;44.536;18.664;2023-02-26T17:04:21;36.93;;;26.97;;
52764;SDS011;38650;44.536;18.664;2023-02-26T17:06:50;22.98;;;19.15;;
52764;SDS011;38650;44.536;18.664;2023-02-26T17:09:50;20.52;;;16.92;;
52764;SDS011;38650;44.536;18.664;2023-02-26T17:12:15;21.92;;;17.55;;
52764;SDS011;38650;44.536;18.664;2023-02-26T17:14:43;23.70;;;18.05;;
52764;SDS011;38650;44.536;18.664;2023-02-26T17:17:10;19.60;;;15.63;;
52764;SDS011;38650;44.536;18.664;2023-02-26T17:19:36;25.63;;;21.38;;
52764;SDS011;38650;44.536;18.664;2023-02-26T17:22:02;42.20;;;33.17;;
52764;SDS011;38650;44.536;18.664;2023-02-26T17:24:33;46.33;;;34.15;;
52764;SDS011;38650;44.536;18.664;2023-02-26T17:27:05;27.98;;;23.13;;
52764;SDS011;38650;44.536;18.664;2023-02-26T17:29:35;34.47;;;25.73;;
52764;SDS011;38650;44.536;18.664;2023-02-26T17:32:03;23.30;;;18.83;;
52764;SDS011;38650;44.536;18.664;2023-02-26T17:34:30;20.63;;;16.58;;
52764;SDS011;38650;44.536;18.664;2023-02-26T17:36:56;17.73;;;13.70;;
52764;SDS011;38650;44.536;18.664;2023-02-26T17:39:23;18.13;;;13.38;;
52764;SDS011;38650;44.536;18.664;2023-02-26T17:41:49;17.90;;;12.20;;
52764;SDS011;38650;44.536;18.664;2023-02-26T17:44:16;12.80;;;10.93;;
52764;SDS011;38650;44.536;18.664;2023-02-26T17:46:41;15.65;;;12.73;;
52764;SDS011;38650;44.536;18.664;2023-02-26T17:49:08;14.18;;;11.68;;
52764;SDS011;38650;44.536;18.664;2023-02-26T17:51:35;12.02;;;8.93;;
52764;SDS011;38650;44.536;18.664;2023-02-26T17:54:01;11.45;;;8.95;;
52764;SDS011;38650;44.536;18.664;2023-02-26T17:56:27;11.02;;;8.55;;